Time;durP1;ratioP1;P1;durP2;ratioP2;P2;SDS_P1;SDS_P2;PMS_P1;PMS_P2;Temp;Humidity;BMP_temperature;BMP_pressure;BME280_temperature;BME280_humidity;BME280_pressure;Samples;Min_cycle;Max_cycle;Signal;HPM_P1;HPM_P2
2023/12/11 00:01:35;;;;;;;;;;;3.70;88.10;;;;;;5001420;28;91763;-44
2023/12/11 00:04:00;;;;;;;;;;;3.70;88.20;;;;;;4992296;28;92003;-44
2023/12/11 00:06:26;;;;;;;;;;;3.70;88.10;;;;;;4994052;28;92060;-44
2023/12/11 00:08:51;;;;;;;;;;;3.70;88.30;;;;;;5001511;28;93406;-44
2023/12/11 00:11:17;;;;;;;;;;;3.80;88.30;;;;;;4995225;28;92706;-44
2023/12/11 00:13:43;;;;;;;;;;;3.80;88.10;;;;;;4996110;28;93446;-45
2023/12/11 00:16:08;;;;;;;;;;;3.70;88.10;;;;;;4996256;28;92002;-44
2023/12/11 00:18:34;;;;;;;;;;;3.70;88.10;;;;;;4996735;28;92903;-45
2023/12/11 00:21:00;;;;;;;;;;;3.70;88.10;;;;;;4994613;28;92679;-43
2023/12/11 00:23:26;;;;;;;;;;;3.70;88.20;;;;;;4997036;28;92101;-44
2023/12/11 00:25:52;;;;;;;;;;;3.70;88.30;;;;;;5000669;28;92937;-43
2023/12/11 00:28:17;;;;;;;;;;;3.70;88.70;;;;;;4992934;28;93499;-44
2023/12/11 00:30:43;;;;;;;;;;;3.70;88.30;;;;;;4999760;28;92094;-43
2023/12/11 00:33:09;;;;;;;;;;;3.70;88.20;;;;;;4991961;28;93516;-44
2023/12/11 00:35:34;;;;;;;;;;;3.70;88.20;;;;;;4994743;28;91946;-45
2023/12/11 00:38:00;;;;;;;;;;;3.70;88.10;;;;;;4998119;28;92329;-44
2023/12/11 00:40:25;;;;;;;;;;;3.70;88.00;;;;;;4989182;28;92711;-44
2023/12/11 00:42:51;;;;;;;;;;;3.70;88.10;;;;;;4994798;28;92079;-44
2023/12/11 00:45:16;;;;;;;;;;;3.70;88.70;;;;;;4993316;28;92872;-43
2023/12/11 00:47:42;;;;;;;;;;;3.70;88.10;;;;;;4998894;28;92866;-45
2023/12/11 00:52:52;;;;;;;;;;;3.70;88.30;;;;;;4999462;28;92029;-44
2023/12/11 00:55:17;;;;;;;;;;;3.70;88.20;;;;;;4992569;28;92067;-44
2023/12/11 00:57:43;;;;;;;;;;;3.70;88.00;;;;;;4991754;28;93411;-44
2023/12/11 01:00:09;;;;;;;;;;;3.70;88.10;;;;;;4992842;28;93530;-44
2023/12/11 01:02:34;;;;;;;;;;;3.70;88.20;;;;;;4995825;28;92128;-45
2023/12/11 01:05:00;;;;;;;;;;;3.70;88.10;;;;;;4996996;28;92075;-43
2023/12/11 01:07:25;;;;;;;;;;;3.70;88.10;;;;;;4992144;28;92446;-44
2023/12/11 01:09:51;;;;;;;;;;;3.70;88.30;;;;;;4996110;28;92261;-44
2023/12/11 01:12:16;;;;;;;;;;;3.70;88.20;;;;;;4997179;28;92010;-44
2023/12/11 01:14:42;;;;;;;;;;;3.70;88.00;;;;;;4999096;28;91633;-45
2023/12/11 01:17:07;;;;;;;;;;;3.70;88.10;;;;;;4995795;28;93573;-43
2023/12/11 01:19:33;;;;;;;;;;;3.70;88.20;;;;;;4996144;28;92492;-44
2023/12/11 01:21:59;;;;;;;;;;;3.70;88.20;;;;;;4992260;28;92947;-44
2023/12/11 01:24:24;;;;;;;;;;;3.70;88.10;;;;;;4994558;28;92779;-44
2023/12/11 01:26:50;;;;;;;;;;;3.70;88.10;;;;;;4996093;28;92616;-44
2023/12/11 01:29:15;;;;;;;;;;;3.70;88.10;;;;;;4999474;28;92040;-44
2023/12/11 01:31:41;;;;;;;;;;;3.70;88.10;;;;;;4996235;28;92211;-44
2023/12/11 01:34:06;;;;;;;;;;;3.70;87.90;;;;;;4991331;28;92430;-44
2023/12/11 01:36:32;;;;;;;;;;;3.60;88.10;;;;;;4997040;28;91935;-43
2023/12/11 01:38:57;;;;;;;;;;;3.70;88.10;;;;;;4995959;28;92822;-44
2023/12/11 01:41:23;;;;;;;;;;;3.60;88.00;;;;;;4995793;28;92094;-44
2023/12/11 01:43:52;;;;;;;;;;;3.60;88.00;;;;;;4992648;28;91943;-42
2023/12/11 01:46:18;;;;;;;;;;;3.60;88.10;;;;;;4993978;28;93381;-43
2023/12/11 01:48:45;;;;;;;;;;;3.60;88.20;;;;;;4996811;28;91887;-44
2023/12/11 01:51:12;;;;;;;;;;;3.60;88.10;;;;;;4994320;28;93146;-43
2023/12/11 01:53:38;;;;;;;;;;;3.70;88.20;;;;;;4998907;28;92456;-44
2023/12/11 01:56:04;;;;;;;;;;;3.60;88.20;;;;;;4996833;28;92053;-44
2023/12/11 01:58:29;;;;;;;;;;;3.60;88.10;;;;;;4994651;28;92326;-44
2023/12/11 02:00:55;;;;;;;;;;;3.60;88.00;;;;;;4996078;28;91978;-43
2023/12/11 02:03:22;;;;;;;;;;;3.70;88.00;;;;;;4993422;28;91831;-43
2023/12/11 02:05:49;;;;;;;;;;;3.60;88.00;;;;;;4991197;28;93539;-44
2023/12/11 02:08:16;;;;;;;;;;;3.60;88.00;;;;;;4997092;28;92061;-43
2023/12/11 02:10:41;;;;;;;;;;;3.60;87.90;;;;;;4986417;28;94415;-43
2023/12/11 02:13:07;;;;;;;;;;;3.60;88.10;;;;;;4990913;28;93521;-43
2023/12/11 02:15:37;;;;;;;;;;;3.60;88.10;;;;;;4995046;28;92077;-43
2023/12/11 02:18:02;;;;;;;;;;;3.60;88.00;;;;;;5002374;28;92878;-45
2023/12/11 02:20:28;;;;;;;;;;;3.60;88.20;;;;;;4996239;28;92050;-45
2023/12/11 02:22:55;;;;;;;;;;;3.60;87.90;;;;;;4994101;28;91933;-43
2023/12/11 02:25:22;;;;;;;;;;;3.60;87.90;;;;;;4991164;28;93719;-43
2023/12/11 02:27:48;;;;;;;;;;;3.60;88.70;;;;;;4996212;28;91398;-43
2023/12/11 02:30:13;;;;;;;;;;;3.60;88.10;;;;;;4996274;28;91957;-44
2023/12/11 02:32:39;;;;;;;;;;;3.60;88.10;;;;;;4990963;28;93541;-44
2023/12/11 02:35:05;;;;;;;;;;;3.60;88.10;;;;;;5000375;28;93005;-44
2023/12/11 02:37:30;;;;;;;;;;;3.60;88.00;;;;;;4997144;28;92539;-44
2023/12/11 02:39:56;;;;;;;;;;;3.60;88.00;;;;;;4990885;28;92470;-44
2023/12/11 02:42:21;;;;;;;;;;;3.60;88.00;;;;;;4995190;28;92014;-43
2023/12/11 02:44:47;;;;;;;;;;;3.60;88.10;;;;;;4993675;28;92632;-44
2023/12/11 02:47:12;;;;;;;;;;;3.60;87.90;;;;;;4993579;28;91894;-44
2023/12/11 02:49:38;;;;;;;;;;;3.60;87.90;;;;;;4994058;28;92072;-44
2023/12/11 02:52:04;;;;;;;;;;;3.60;88.00;;;;;;4993469;28;91696;-44
2023/12/11 02:54:29;;;;;;;;;;;3.60;88.10;;;;;;4995167;28;92045;-44
2023/12/11 02:56:55;;;;;;;;;;;3.60;88.00;;;;;;4993007;28;91985;-44
2023/12/11 02:59:20;;;;;;;;;;;3.60;88.00;;;;;;4993588;28;93303;-44
2023/12/11 03:01:46;;;;;;;;;;;3.60;88.10;;;;;;5001156;28;92176;-43
2023/12/11 03:04:11;;;;;;;;;;;3.60;88.00;;;;;;4994514;28;92493;-43
2023/12/11 03:06:37;;;;;;;;;;;3.60;88.10;;;;;;4995309;28;92079;-44
2023/12/11 03:09:03;;;;;;;;;;;3.60;88.00;;;;;;4994187;28;91998;-44
2023/12/11 03:11:28;;;;;;;;;;;3.60;88.10;;;;;;4990933;28;93356;-44
2023/12/11 03:13:54;;;;;;;;;;;3.60;88.00;;;;;;4995084;28;92003;-44
2023/12/11 03:16:19;;;;;;;;;;;3.60;88.10;;;;;;4995658;28;92912;-44
2023/12/11 03:18:45;;;;;;;;;;;3.50;87.90;;;;;;4987806;28;92630;-43
2023/12/11 03:21:11;;;;;;;;;;;3.60;87.90;;;;;;4991125;28;92101;-44
2023/12/11 03:23:38;;;;;;;;;;;3.60;88.20;;;;;;4994664;28;93316;-44
2023/12/11 03:26:03;;;;;;;;;;;3.60;88.00;;;;;;4994747;28;92011;-43
2023/12/11 03:28:29;;;;;;;;;;;3.50;87.90;;;;;;4992291;28;92043;-44
2023/12/11 03:30:55;;;;;;;;;;;3.50;88.00;;;;;;4993951;28;92456;-43
2023/12/11 03:33:20;;;;;;;;;;;3.50;87.90;;;;;;4997473;28;92133;-44
2023/12/11 03:35:46;;;;;;;;;;;3.60;87.90;;;;;;4999809;28;92686;-44
2023/12/11 03:38:11;;;;;;;;;;;3.60;88.10;;;;;;5001012;28;92429;-43
2023/12/11 03:40:37;;;;;;;;;;;3.50;88.00;;;;;;4994899;28;91533;-44
2023/12/11 03:43:02;;;;;;;;;;;3.50;87.90;;;;;;4998798;28;92220;-45
2023/12/11 03:45:28;;;;;;;;;;;3.50;88.10;;;;;;4996989;28;92004;-42
2023/12/11 03:47:53;;;;;;;;;;;3.50;88.10;;;;;;4996649;28;92986;-44
2023/12/11 03:50:19;;;;;;;;;;;3.50;88.00;;;;;;4999588;28;92509;-44
2023/12/11 03:52:45;;;;;;;;;;;3.50;88.00;;;;;;4997550;28;92163;-44
2023/12/11 03:55:11;;;;;;;;;;;3.50;87.90;;;;;;5002056;28;94484;-44
2023/12/11 03:57:36;;;;;;;;;;;3.50;88.00;;;;;;4998816;28;92525;-44
2023/12/11 04:00:02;;;;;;;;;;;3.50;88.00;;;;;;4993195;28;92034;-44
2023/12/11 04:02:27;;;;;;;;;;;3.50;88.20;;;;;;4996415;28;92033;-45
2023/12/11 04:04:53;;;;;;;;;;;3.50;87.90;;;;;;5002077;28;92991;-44
2023/12/11 04:07:18;;;;;;;;;;;3.50;88.00;;;;;;4998290;28;92097;-43
2023/12/11 04:09:44;;;;;;;;;;;3.50;87.80;;;;;;5000369;28;92567;-45
2023/12/11 04:12:10;;;;;;;;;;;3.50;88.00;;;;;;4992440;28;93353;-43
2023/12/11 04:14:35;;;;;;;;;;;3.50;88.00;;;;;;5000610;28;92523;-43
2023/12/11 04:17:01;;;;;;;;;;;3.50;88.20;;;;;;4990138;28;92515;-45
2023/12/11 04:19:26;;;;;;;;;;;3.50;87.90;;;;;;4997581;28;92013;-43
2023/12/11 04:21:52;;;;;;;;;;;3.50;88.00;;;;;;5002676;28;92097;-44
2023/12/11 04:24:17;;;;;;;;;;;3.50;88.10;;;;;;4993611;28;92928;-44
2023/12/11 04:26:43;;;;;;;;;;;3.40;88.00;;;;;;5000626;28;92054;-43
2023/12/11 04:29:09;;;;;;;;;;;3.50;87.80;;;;;;4995451;28;92799;-44
2023/12/11 04:31:34;;;;;;;;;;;3.50;88.00;;;;;;4995296;28;92107;-45
2023/12/11 04:34:00;;;;;;;;;;;3.40;87.90;;;;;;4995055;28;92092;-44
2023/12/11 04:36:26;;;;;;;;;;;3.40;87.80;;;;;;4997918;28;92964;-44
2023/12/11 04:38:52;;;;;;;;;;;3.50;88.00;;;;;;4996117;28;92100;-43
2023/12/11 04:41:17;;;;;;;;;;;3.40;88.00;;;;;;4996785;28;92276;-44
2023/12/11 04:43:43;;;;;;;;;;;3.40;87.90;;;;;;4994743;28;93661;-44
2023/12/11 04:46:08;;;;;;;;;;;3.40;87.80;;;;;;4997011;28;92121;-44
2023/12/11 04:48:34;;;;;;;;;;;3.40;87.90;;;;;;4999931;28;92102;-44
2023/12/11 04:50:59;;;;;;;;;;;3.40;87.90;;;;;;4990438;28;92171;-43
2023/12/11 04:53:25;;;;;;;;;;;3.40;88.00;;;;;;4997156;28;91307;-44
2023/12/11 04:55:51;;;;;;;;;;;3.40;87.80;;;;;;4993964;28;93572;-47
2023/12/11 04:58:17;;;;;;;;;;;3.40;87.90;;;;;;4991951;28;91979;-44
2023/12/11 05:00:42;;;;;;;;;;;3.40;88.00;;;;;;4995516;28;92859;-46
2023/12/11 05:03:08;;;;;;;;;;;3.40;87.90;;;;;;4992318;28;92423;-44
2023/12/11 05:05:35;;;;;;;;;;;3.40;87.90;;;;;;4995862;28;91880;-44
2023/12/11 05:08:01;;;;;;;;;;;3.40;87.80;;;;;;4999695;28;92975;-44
2023/12/11 05:10:27;;;;;;;;;;;3.40;87.90;;;;;;5000014;28;92492;-44
2023/12/11 05:12:52;;;;;;;;;;;3.40;88.00;;;;;;4991813;28;93039;-44
2023/12/11 05:15:18;;;;;;;;;;;3.40;87.90;;;;;;4995632;28;91906;-43
2023/12/11 05:17:44;;;;;;;;;;;3.40;88.00;;;;;;4999574;28;91342;-43
2023/12/11 05:20:12;;;;;;;;;;;3.40;88.00;;;;;;4995990;28;92051;-43
2023/12/11 05:22:38;;;;;;;;;;;3.40;88.10;;;;;;4994333;28;93740;-44
2023/12/11 05:25:04;;;;;;;;;;;3.40;88.10;;;;;;4995477;28;92896;-43
2023/12/11 05:27:29;;;;;;;;;;;3.40;88.10;;;;;;4996355;28;92764;-44
2023/12/11 05:29:55;;;;;;;;;;;3.40;88.00;;;;;;4994431;28;92544;-44
2023/12/11 05:32:21;;;;;;;;;;;3.40;88.00;;;;;;4997017;28;92075;-44
2023/12/11 05:34:46;;;;;;;;;;;3.40;88.00;;;;;;4995723;28;92518;-44
2023/12/11 05:37:12;;;;;;;;;;;3.40;88.00;;;;;;4993866;28;92074;-44
2023/12/11 05:39:37;;;;;;;;;;;3.40;87.80;;;;;;4994447;28;92037;-43
2023/12/11 05:42:03;;;;;;;;;;;3.40;88.10;;;;;;4992940;28;91920;-43
2023/12/11 05:44:29;;;;;;;;;;;3.40;88.00;;;;;;4995285;28;92017;-44
2023/12/11 05:46:54;;;;;;;;;;;3.40;88.10;;;;;;4992522;28;92830;-44
2023/12/11 05:49:20;;;;;;;;;;;3.40;88.00;;;;;;4995280;28;93353;-45
2023/12/11 05:51:46;;;;;;;;;;;3.40;88.00;;;;;;4994397;28;92184;-43
2023/12/11 05:54:11;;;;;;;;;;;3.30;87.90;;;;;;4991103;28;92506;-44
2023/12/11 05:56:37;;;;;;;;;;;3.40;87.90;;;;;;4995885;28;92062;-43
2023/12/11 05:59:02;;;;;;;;;;;3.30;88.00;;;;;;4996361;28;92050;-44
2023/12/11 06:01:29;;;;;;;;;;;3.30;88.10;;;;;;4988507;28;93671;-44
2023/12/11 06:03:55;;;;;;;;;;;3.40;88.00;;;;;;4992967;28;92190;-44
2023/12/11 06:06:20;;;;;;;;;;;3.30;88.10;;;;;;4997949;28;91704;-43
2023/12/11 06:08:46;;;;;;;;;;;3.30;88.00;;;;;;4989889;28;93068;-45
2023/12/11 06:11:11;;;;;;;;;;;3.40;88.10;;;;;;4991112;28;92623;-44
2023/12/11 06:13:37;;;;;;;;;;;3.30;88.00;;;;;;4994828;28;92960;-44
2023/12/11 06:16:03;;;;;;;;;;;3.30;88.00;;;;;;4996476;28;92079;-43
2023/12/11 06:18:28;;;;;;;;;;;3.40;87.90;;;;;;4994365;28;92748;-44
2023/12/11 06:20:54;;;;;;;;;;;3.30;88.00;;;;;;4990653;28;92397;-44
2023/12/11 06:23:21;;;;;;;;;;;3.30;88.00;;;;;;4998592;28;92524;-44
2023/12/11 06:25:47;;;;;;;;;;;3.30;87.80;;;;;;4996031;28;92115;-44
2023/12/11 06:28:12;;;;;;;;;;;3.40;87.90;;;;;;4991724;28;92499;-44
2023/12/11 06:30:38;;;;;;;;;;;3.30;87.90;;;;;;4992286;28;93024;-43
2023/12/11 06:33:04;;;;;;;;;;;3.30;87.80;;;;;;4996329;28;92271;-44
2023/12/11 06:35:30;;;;;;;;;;;3.30;87.90;;;;;;4994154;28;93602;-44
2023/12/11 06:37:56;;;;;;;;;;;3.30;87.80;;;;;;4996582;28;93070;-44
2023/12/11 06:40:21;;;;;;;;;;;3.30;87.80;;;;;;4990721;28;93764;-44
2023/12/11 06:42:47;;;;;;;;;;;3.30;87.80;;;;;;4996556;28;92710;-44
2023/12/11 06:45:12;;;;;;;;;;;3.30;87.90;;;;;;4991451;28;92008;-44
2023/12/11 06:47:38;;;;;;;;;;;3.30;87.80;;;;;;4991935;28;92488;-44
2023/12/11 06:50:04;;;;;;;;;;;3.30;87.70;;;;;;4994362;28;92045;-44
2023/12/11 06:52:29;;;;;;;;;;;3.30;87.80;;;;;;4996767;28;91937;-44
2023/12/11 06:54:55;;;;;;;;;;;3.40;87.80;;;;;;4991663;28;93031;-43
2023/12/11 06:57:21;;;;;;;;;;;3.40;87.70;;;;;;4999712;28;92176;-44
2023/12/11 06:59:47;;;;;;;;;;;3.30;87.70;;;;;;4994127;28;92692;-44
2023/12/11 07:02:12;;;;;;;;;;;3.30;87.70;;;;;;4992547;28;92935;-45
2023/12/11 07:04:40;;;;;;;;;;;3.30;87.80;;;;;;4996202;28;92159;-43
2023/12/11 07:07:06;;;;;;;;;;;3.30;87.90;;;;;;4994726;28;93813;-44
2023/12/11 07:09:32;;;;;;;;;;;3.30;87.70;;;;;;4995768;28;92259;-45
2023/12/11 07:11:58;;;;;;;;;;;3.30;87.70;;;;;;4997814;28;92190;-43
2023/12/11 07:14:24;;;;;;;;;;;3.30;87.70;;;;;;4994860;28;92879;-44
2023/12/11 07:16:50;;;;;;;;;;;3.40;87.70;;;;;;4997169;28;92077;-45
2023/12/11 07:19:16;;;;;;;;;;;3.30;87.70;;;;;;5003030;28;92963;-45
2023/12/11 07:21:42;;;;;;;;;;;3.30;87.80;;;;;;5001689;28;92053;-43
2023/12/11 07:24:08;;;;;;;;;;;3.30;87.70;;;;;;4993207;28;93888;-45
2023/12/11 07:26:33;;;;;;;;;;;3.30;87.60;;;;;;4996778;28;93268;-44
2023/12/11 07:29:00;;;;;;;;;;;3.30;87.70;;;;;;4997764;28;92038;-44
2023/12/11 07:31:25;;;;;;;;;;;3.30;87.70;;;;;;4998675;28;92064;-44
2023/12/11 07:33:51;;;;;;;;;;;3.30;87.70;;;;;;4997134;28;93639;-44
2023/12/11 07:36:17;;;;;;;;;;;3.30;87.60;;;;;;4998017;28;92184;-44
2023/12/11 07:38:42;;;;;;;;;;;3.30;87.80;;;;;;4997179;28;92605;-44
2023/12/11 07:41:08;;;;;;;;;;;3.30;87.60;;;;;;4996289;28;93866;-44
2023/12/11 07:43:33;;;;;;;;;;;3.30;87.60;;;;;;4996405;28;91762;-44
2023/12/11 07:45:59;;;;;;;;;;;3.30;87.50;;;;;;5000698;28;93528;-44
2023/12/11 07:48:25;;;;;;;;;;;3.30;87.50;;;;;;4998883;28;92068;-44
2023/12/11 07:50:51;;;;;;;;;;;3.30;87.60;;;;;;4992549;28;94685;-44
2023/12/11 07:53:17;;;;;;;;;;;3.30;87.60;;;;;;4996574;28;92823;-44
2023/12/11 07:55:42;;;;;;;;;;;3.30;87.60;;;;;;4996927;28;92218;-45
2023/12/11 07:58:08;;;;;;;;;;;3.30;87.50;;;;;;4992151;28;92461;-44
2023/12/11 08:00:33;;;;;;;;;;;3.30;87.50;;;;;;4997714;28;93409;-44
2023/12/11 08:02:59;;;;;;;;;;;3.30;87.50;;;;;;5000648;28;93999;-44
2023/12/11 08:05:24;;;;;;;;;;;3.30;87.60;;;;;;4989509;28;93583;-44
2023/12/11 08:07:50;;;;;;;;;;;3.30;87.60;;;;;;5000134;28;91412;-44
2023/12/11 08:10:16;;;;;;;;;;;3.30;87.60;;;;;;4993493;28;92792;-43
2023/12/11 08:12:42;;;;;;;;;;;3.30;87.60;;;;;;4999415;28;95188;-43
2023/12/11 08:15:07;;;;;;;;;;;3.30;87.50;;;;;;4997508;28;93013;-44
2023/12/11 08:17:33;;;;;;;;;;;3.30;87.50;;;;;;4999726;28;93908;-44
2023/12/11 08:19:59;;;;;;;;;;;3.30;87.40;;;;;;4994139;28;92033;-45
2023/12/11 08:22:24;;;;;;;;;;;3.30;87.50;;;;;;4997509;28;92727;-44
2023/12/11 08:24:50;;;;;;;;;;;3.30;87.40;;;;;;4996997;28;92623;-44
2023/12/11 08:27:15;;;;;;;;;;;3.30;87.40;;;;;;4992105;28;92020;-43
2023/12/11 08:29:41;;;;;;;;;;;3.30;87.40;;;;;;4998418;28;92814;-43
2023/12/11 08:32:06;;;;;;;;;;;3.40;87.40;;;;;;4996681;28;92803;-44
2023/12/11 08:34:32;;;;;;;;;;;3.40;87.30;;;;;;5000228;28;92118;-44
2023/12/11 08:36:58;;;;;;;;;;;3.40;87.40;;;;;;4992653;28;92218;-44
2023/12/11 08:39:23;;;;;;;;;;;3.40;87.40;;;;;;4992980;28;93378;-44
2023/12/11 08:41:49;;;;;;;;;;;3.40;87.30;;;;;;4991885;28;92115;-43
2023/12/11 08:44:15;;;;;;;;;;;3.40;87.40;;;;;;4997892;28;92022;-44
2023/12/11 08:46:41;;;;;;;;;;;3.30;87.20;;;;;;4993000;28;92100;-44
2023/12/11 08:49:07;;;;;;;;;;;3.40;87.40;;;;;;4996991;28;93124;-44
2023/12/11 08:51:33;;;;;;;;;;;3.40;87.50;;;;;;4996268;28;92460;-44
2023/12/11 08:53:58;;;;;;;;;;;3.40;87.30;;;;;;4998462;28;92012;-44
2023/12/11 08:56:24;;;;;;;;;;;3.40;87.10;;;;;;4997428;28;92911;-44
2023/12/11 08:58:50;;;;;;;;;;;3.40;87.40;;;;;;4995089;28;94486;-43
2023/12/11 09:01:15;;;;;;;;;;;3.40;87.30;;;;;;4999571;28;92093;-43
2023/12/11 09:03:44;;;;;;;;;;;3.40;87.30;;;;;;4996469;28;93698;-45
2023/12/11 09:06:09;;;;;;;;;;;3.40;87.40;;;;;;4996231;28;93937;-44
2023/12/11 09:08:35;;;;;;;;;;;3.40;87.30;;;;;;4997112;28;92055;-44
2023/12/11 09:11:01;;;;;;;;;;;3.40;87.30;;;;;;4989605;28;92507;-44
2023/12/11 09:13:26;;;;;;;;;;;3.40;87.30;;;;;;4994168;28;92055;-44
2023/12/11 09:15:52;;;;;;;;;;;3.40;87.30;;;;;;4991562;28;92835;-44
2023/12/11 09:18:17;;;;;;;;;;;3.40;87.10;;;;;;4993016;28;92562;-43
2023/12/11 09:20:43;;;;;;;;;;;3.40;87.30;;;;;;4998742;28;91331;-44
2023/12/11 09:23:09;;;;;;;;;;;3.40;87.30;;;;;;4999129;28;92322;-44
2023/12/11 09:25:35;;;;;;;;;;;3.50;87.20;;;;;;4992682;28;93500;-44
2023/12/11 09:28:01;;;;;;;;;;;3.50;87.30;;;;;;5002020;28;93041;-44
2023/12/11 09:30:28;;;;;;;;;;;3.50;87.10;;;;;;4997745;28;92399;-44
2023/12/11 09:32:53;;;;;;;;;;;3.50;87.10;;;;;;4993371;28;92073;-44
2023/12/11 09:35:19;;;;;;;;;;;3.50;87.20;;;;;;4999842;28;94458;-43
2023/12/11 09:37:46;;;;;;;;;;;3.50;87.20;;;;;;4991352;28;92629;-44
2023/12/11 09:40:12;;;;;;;;;;;3.50;87.20;;;;;;4991936;28;92008;-44
2023/12/11 09:42:39;;;;;;;;;;;3.50;87.20;;;;;;4993856;28;92064;-44
2023/12/11 09:45:05;;;;;;;;;;;3.50;87.20;;;;;;4994068;28;91895;-45
2023/12/11 09:47:34;;;;;;;;;;;3.50;87.20;;;;;;4994486;28;92054;-44
2023/12/11 09:50:00;;;;;;;;;;;3.50;87.00;;;;;;4996151;28;92093;-44
2023/12/11 09:52:26;;;;;;;;;;;3.50;87.20;;;;;;4993735;28;93025;-44
2023/12/11 09:54:52;;;;;;;;;;;3.50;87.10;;;;;;4995368;28;91881;-44
2023/12/11 09:57:17;;;;;;;;;;;3.50;87.00;;;;;;4991959;28;92547;-45
2023/12/11 09:59:43;;;;;;;;;;;3.50;87.10;;;;;;4995313;28;92077;-45
2023/12/11 10:02:15;;;;;;;;;;;3.60;87.30;;;;;;4995699;28;92348;-44
2023/12/11 10:05:00;;;;;;;;;;;3.50;87.40;;;;;;4993205;28;93621;-45
2023/12/11 10:07:25;;;;;;;;;;;3.50;87.10;;;;;;4997660;28;92118;-44
2023/12/11 10:09:51;;;;;;;;;;;3.50;87.30;;;;;;4995445;28;92891;-46
2023/12/11 10:12:17;;;;;;;;;;;3.60;87.20;;;;;;4992004;28;91947;-44
2023/12/11 10:14:42;;;;;;;;;;;3.60;87.00;;;;;;4992780;28;92374;-44
2023/12/11 10:17:15;;;;;;;;;;;3.50;87.10;;;;;;4994199;28;93406;-45
2023/12/11 10:19:40;;;;;;;;;;;3.60;87.20;;;;;;4996281;28;92110;-44
2023/12/11 10:22:06;;;;;;;;;;;3.60;87.10;;;;;;4992743;28;92754;-45
2023/12/11 10:24:32;;;;;;;;;;;3.60;87.00;;;;;;4994830;28;92775;-44
2023/12/11 10:26:57;;;;;;;;;;;3.60;87.30;;;;;;4997109;28;92045;-44
2023/12/11 10:29:23;;;;;;;;;;;3.50;87.00;;;;;;4991801;28;92085;-44
2023/12/11 10:31:53;;;;;;;;;;;3.60;87.10;;;;;;4993425;28;92768;-44
2023/12/11 10:34:38;;;;;;;;;;;3.50;87.00;;;;;;4996314;28;91581;-44
2023/12/11 10:37:04;;;;;;;;;;;3.60;87.40;;;;;;4991541;28;92507;-44
2023/12/11 10:39:29;;;;;;;;;;;3.50;87.20;;;;;;4994691;28;92026;-44
2023/12/11 10:41:55;;;;;;;;;;;3.60;87.40;;;;;;4993910;28;92979;-44
2023/12/11 10:44:26;;;;;;;;;;;3.50;87.30;;;;;;4991932;28;92534;-43
2023/12/11 10:46:55;;;;;;;;;;;3.50;87.30;;;;;;4993725;28;92808;-43
2023/12/11 10:49:21;;;;;;;;;;;3.60;87.30;;;;;;4990492;28;91965;-43
2023/12/11 10:51:47;;;;;;;;;;;3.50;87.90;;;;;;4994919;28;93417;-44
2023/12/11 10:54:13;;;;;;;;;;;3.50;87.40;;;;;;4994056;28;92078;-44
2023/12/11 10:56:43;;;;;;;;;;;3.50;87.60;;;;;;4990548;28;92566;-44
2023/12/11 10:59:10;;;;;;;;;;;3.50;87.70;;;;;;4991415;28;91467;-45
2023/12/11 11:01:35;;;;;;;;;;;3.50;87.50;;;;;;4995991;28;92031;-44
2023/12/11 11:04:02;;;;;;;;;;;3.50;87.50;;;;;;4992938;28;92615;-44
2023/12/11 11:06:29;;;;;;;;;;;3.50;87.90;;;;;;4993975;28;92962;-44
2023/12/11 11:09:05;;;;;;;;;;;3.60;87.80;;;;;;4992796;28;93944;-43
2023/12/11 11:11:33;;;;;;;;;;;3.60;87.70;;;;;;4995391;28;92596;-44
2023/12/11 11:14:04;;;;;;;;;;;3.60;87.60;;;;;;4994412;28;92070;-44
2023/12/11 11:16:48;;;;;;;;;;;3.60;87.80;;;;;;5002630;28;93649;-45
2023/12/11 11:19:15;;;;;;;;;;;3.60;87.50;;;;;;4988621;28;92197;-46
2023/12/11 11:21:42;;;;;;;;;;;3.60;87.60;;;;;;4990106;28;92806;-44
2023/12/11 11:24:28;;;;;;;;;;;3.60;87.80;;;;;;4990702;28;92966;-45
2023/12/11 11:26:53;;;;;;;;;;;3.60;87.80;;;;;;4995540;28;92012;-43
2023/12/11 11:29:41;;;;;;;;;;;3.70;87.80;;;;;;4994647;28;92142;-47
2023/12/11 11:32:07;;;;;;;;;;;3.70;87.70;;;;;;4990287;28;93443;-45
2023/12/11 11:34:45;;;;;;;;;;;3.70;87.80;;;;;;4994387;28;93720;-47
2023/12/11 11:37:17;;;;;;;;;;;3.70;87.80;;;;;;4991471;28;92897;-45
2023/12/11 11:39:58;;;;;;;;;;;3.70;87.90;;;;;;4995221;28;92493;-46
2023/12/11 11:42:24;;;;;;;;;;;3.70;88.10;;;;;;4994654;28;92841;-46
2023/12/11 11:45:08;;;;;;;;;;;3.70;88.00;;;;;;4995545;28;93469;-44
2023/12/11 11:47:36;;;;;;;;;;;3.70;88.10;;;;;;4989996;28;93510;-45
2023/12/11 11:50:06;;;;;;;;;;;3.70;88.50;;;;;;4995162;28;91828;-45
2023/12/11 11:52:32;;;;;;;;;;;3.70;88.30;;;;;;4989979;28;94091;-45
2023/12/11 11:55:11;;;;;;;;;;;3.70;88.50;;;;;;4997389;28;92059;-44
2023/12/11 11:57:36;;;;;;;;;;;3.70;88.90;;;;;;4995458;28;93040;-45
2023/12/11 12:00:04;;;;;;;;;;;3.70;89.10;;;;;;4997959;28;93482;-46
2023/12/11 12:02:31;;;;;;;;;;;3.70;89.10;;;;;;5001093;28;92060;-44
2023/12/11 12:05:05;;;;;;;;;;;3.70;89.20;;;;;;4994896;28;92471;-43
2023/12/11 12:07:31;;;;;;;;;;;3.70;89.10;;;;;;4994748;28;92779;-44
2023/12/11 12:09:59;;;;;;;;;;;3.70;88.90;;;;;;4999946;28;92057;-45
2023/12/11 12:12:26;;;;;;;;;;;3.80;89.20;;;;;;4996586;28;93582;-44
2023/12/11 12:15:05;;;;;;;;;;;3.80;89.10;;;;;;4997534;28;91306;-44
2023/12/11 12:17:30;;;;;;;;;;;3.80;89.10;;;;;;4997273;28;92326;-44
2023/12/11 12:19:56;;;;;;;;;;;3.80;89.20;;;;;;5002444;28;92454;-44
2023/12/11 12:22:21;;;;;;;;;;;3.70;89.30;;;;;;5000158;28;92988;-44
2023/12/11 12:24:51;;;;;;;;;;;3.70;89.50;;;;;;4992987;28;92587;-44
2023/12/11 12:27:22;;;;;;;;;;;3.80;89.40;;;;;;4994982;28;92032;-45
2023/12/11 12:29:48;;;;;;;;;;;3.80;89.60;;;;;;5000655;28;92847;-45
2023/12/11 12:32:14;;;;;;;;;;;3.80;89.40;;;;;;4994863;28;93607;-44
2023/12/11 12:34:40;;;;;;;;;;;3.80;89.50;;;;;;4997455;28;92100;-45
2023/12/11 12:37:06;;;;;;;;;;;3.80;89.50;;;;;;4997054;28;92126;-44
2023/12/11 12:39:31;;;;;;;;;;;3.80;89.50;;;;;;4994494;28;92606;-45
2023/12/11 12:41:57;;;;;;;;;;;3.80;89.50;;;;;;4996952;28;92034;-44
2023/12/11 12:44:23;;;;;;;;;;;3.80;89.50;;;;;;5005590;28;95346;-45
2023/12/11 12:46:49;;;;;;;;;;;3.80;89.40;;;;;;4993020;28;92962;-45
2023/12/11 12:49:15;;;;;;;;;;;3.90;89.40;;;;;;5000084;28;92675;-44
2023/12/11 12:51:43;;;;;;;;;;;3.80;89.50;;;;;;4994651;28;92668;-43
2023/12/11 12:54:10;;;;;;;;;;;3.80;89.60;;;;;;4995422;28;92090;-44
2023/12/11 12:56:36;;;;;;;;;;;3.80;89.60;;;;;;4990860;28;92861;-44
2023/12/11 12:59:02;;;;;;;;;;;3.80;89.40;;;;;;4995082;28;92496;-44
2023/12/11 13:01:36;;;;;;;;;;;3.90;89.70;;;;;;4993693;28;92181;-44
2023/12/11 13:04:02;;;;;;;;;;;3.90;89.60;;;;;;4991787;28;92922;-44
2023/12/11 13:06:28;;;;;;;;;;;3.90;90.10;;;;;;4996192;28;93648;-44
2023/12/11 13:08:54;;;;;;;;;;;3.90;89.70;;;;;;5000361;28;91924;-46
2023/12/11 13:11:19;;;;;;;;;;;3.90;89.60;;;;;;4989749;28;94437;-46
2023/12/11 13:13:52;;;;;;;;;;;3.90;89.70;;;;;;4994155;28;92718;-44
2023/12/11 13:16:18;;;;;;;;;;;3.90;89.70;;;;;;4992147;28;93008;-44
2023/12/11 13:18:45;;;;;;;;;;;3.90;89.70;;;;;;4994608;28;93542;-45
2023/12/11 13:21:11;;;;;;;;;;;4.00;89.80;;;;;;4991166;28;92220;-44
2023/12/11 13:23:36;;;;;;;;;;;3.90;89.70;;;;;;4994442;28;92110;-44
2023/12/11 13:26:02;;;;;;;;;;;3.90;89.80;;;;;;4994858;28;93496;-46
2023/12/11 13:28:28;;;;;;;;;;;3.90;89.80;;;;;;4996126;28;91349;-44
2023/12/11 13:30:53;;;;;;;;;;;3.90;89.70;;;;;;4991990;28;92815;-44
2023/12/11 13:33:19;;;;;;;;;;;3.90;89.90;;;;;;4994653;28;92246;-44
2023/12/11 13:35:44;;;;;;;;;;;3.90;90.00;;;;;;4991886;28;92815;-44
2023/12/11 13:38:10;;;;;;;;;;;4.00;90.20;;;;;;5000923;28;92260;-44
2023/12/11 13:40:36;;;;;;;;;;;4.00;89.80;;;;;;4995945;28;93091;-44
2023/12/11 13:43:01;;;;;;;;;;;4.00;89.90;;;;;;4991033;28;92874;-44
2023/12/11 13:45:27;;;;;;;;;;;4.00;89.90;;;;;;4991878;28;92633;-44
2023/12/11 13:47:53;;;;;;;;;;;4.00;89.90;;;;;;4996094;28;92140;-45
2023/12/11 13:50:18;;;;;;;;;;;4.00;89.90;;;;;;4996531;28;93768;-45
2023/12/11 13:52:44;;;;;;;;;;;4.10;89.90;;;;;;4994656;28;91380;-44
2023/12/11 13:55:09;;;;;;;;;;;4.00;89.90;;;;;;4995606;28;91972;-44
2023/12/11 13:57:35;;;;;;;;;;;4.00;90.00;;;;;;4997427;28;92503;-44
2023/12/11 14:00:00;;;;;;;;;;;4.00;89.90;;;;;;4992096;28;93196;-44
2023/12/11 14:02:26;;;;;;;;;;;4.00;89.90;;;;;;4991786;28;93784;-45
2023/12/11 14:04:51;;;;;;;;;;;4.00;89.80;;;;;;4995393;28;93116;-44
2023/12/11 14:07:17;;;;;;;;;;;4.00;89.80;;;;;;4993191;28;92221;-44
2023/12/11 14:09:42;;;;;;;;;;;4.10;89.90;;;;;;4996023;28;92420;-45
2023/12/11 14:12:08;;;;;;;;;;;4.10;90.00;;;;;;5001048;28;92502;-44
2023/12/11 14:14:35;;;;;;;;;;;4.10;90.00;;;;;;4996020;28;92800;-45
2023/12/11 14:17:02;;;;;;;;;;;4.10;89.90;;;;;;4998971;28;92976;-45
2023/12/11 14:19:30;;;;;;;;;;;4.10;89.90;;;;;;4991420;28;94138;-44
2023/12/11 14:21:55;;;;;;;;;;;4.10;90.00;;;;;;5023423;28;94628;-44
2023/12/11 14:24:21;;;;;;;;;;;4.10;90.00;;;;;;4997827;28;93731;-45
2023/12/11 14:26:47;;;;;;;;;;;4.10;90.00;;;;;;4992644;28;92053;-44
2023/12/11 14:29:12;;;;;;;;;;;4.10;90.00;;;;;;4999591;28;92994;-44